Time;durP1;ratioP1;P1;durP2;ratioP2;P2;SDS_P1;SDS_P2;PMS_P1;PMS_P2;Temp;Humidity;BMP_temperature;BMP_pressure;BME280_temperature;BME280_humidity;BME280_pressure;Samples;Min_cycle;Max_cycle;Signal;HPM_P1;HPM_P2
2022/03/21 00:00:47;;;;;;;34.67;18.90;;;;;;;-0.84;51.04;102938.91;1721200;83;21025;-75
2022/03/21 00:03:17;;;;;;;36.97;19.40;;;;;;;-0.86;51.37;102941.80;1731805;82;20987;-75
2022/03/21 00:05:45;;;;;;;38.50;19.82;;;;;;;-0.88;51.72;102944.72;1732064;82;21018;-74
2022/03/21 00:08:17;;;;;;;34.13;19.60;;;;;;;-0.84;52.05;102940.61;1713358;83;21570;-75
2022/03/21 00:10:46;;;;;;;42.20;20.03;;;;;;;-0.78;52.53;102946.94;1731915;82;21136;-75
2022/03/21 00:13:18;;;;;;;40.67;20.80;;;;;;;-0.73;52.96;102945.48;1700954;84;21023;-74
2022/03/21 00:15:47;;;;;;;32.60;18.73;;;;;;;-0.69;53.43;102938.41;1730061;82;21017;-75
2022/03/21 00:18:16;;;;;;;37.50;19.50;;;;;;;-0.61;53.42;102941.74;1731731;82;21013;-75
2022/03/21 00:20:47;;;;;;;38.03;20.13;;;;;;;-0.54;53.71;102945.11;1701280;84;21028;-75
2022/03/21 00:23:15;;;;;;;36.48;19.23;;;;;;;-0.53;53.69;102934.87;1731344;82;21109;-74
2022/03/21 00:25:42;;;;;;;34.63;19.07;;;;;;;-0.59;53.44;102937.56;1731477;82;21009;-74
2022/03/21 00:28:10;;;;;;;33.23;19.67;;;;;;;-0.66;53.40;102936.80;1700676;84;21033;-74
2022/03/21 00:30:39;;;;;;;33.27;18.73;;;;;;;-0.76;53.25;102936.72;1732079;82;20996;-74
2022/03/21 00:33:07;;;;;;;34.63;18.93;;;;;;;-0.84;53.26;102931.59;1731817;82;21420;-74
2022/03/21 00:35:35;;;;;;;36.97;18.93;;;;;;;-0.94;53.22;102928.56;1732010;82;21936;-75
2022/03/21 00:38:03;;;;;;;33.67;17.27;;;;;;;-1.04;53.21;102931.87;1700943;84;21028;-73
2022/03/21 00:40:31;;;;;;;32.73;18.47;;;;;;;-1.13;53.26;102927.15;1731993;82;21024;-75
2022/03/21 00:42:59;;;;;;;29.20;17.67;;;;;;;-1.20;53.33;102923.77;1731847;82;21546;-75
2022/03/21 00:45:27;;;;;;;35.17;18.10;;;;;;;-1.25;53.32;102926.09;1701459;84;21028;-74
2022/03/21 00:47:55;;;;;;;34.27;17.80;;;;;;;-1.32;53.36;102929.58;1731737;82;21970;-73
2022/03/21 00:50:25;;;;;;;29.83;17.67;;;;;;;-1.37;53.62;102931.89;1713330;83;21017;-73
2022/03/21 00:52:56;;;;;;;30.43;17.10;;;;;;;-1.42;53.63;102930.77;1718563;82;20997;-73
2022/03/21 00:55:26;;;;;;;34.50;18.03;;;;;;;-1.46;53.75;102931.02;1716028;83;21522;-74
2022/03/21 00:57:54;;;;;;;30.75;17.48;;;;;;;-1.54;53.76;102924.98;1716098;83;20986;-74
2022/03/21 01:00:25;;;;;;;35.97;17.37;;;;;;;-1.61;53.92;102922.09;1716084;83;21169;-74
2022/03/21 01:02:55;;;;;;;32.80;17.77;;;;;;;-1.67;54.04;102915.72;1715944;83;20909;-75
2022/03/21 01:05:23;;;;;;;34.48;18.05;;;;;;;-1.70;54.31;102924.16;1716091;83;21274;-74
2022/03/21 01:07:52;;;;;;;32.47;16.63;;;;;;;-1.69;54.28;102919.52;1716093;83;21005;-72
2022/03/21 01:10:23;;;;;;;29.40;17.10;;;;;;;-1.69;54.37;102918.23;1716088;83;21524;-74
2022/03/21 01:12:52;;;;;;;29.27;16.87;;;;;;;-1.72;54.50;102914.17;1716081;83;21146;-74
2022/03/21 01:15:22;;;;;;;33.00;17.70;;;;;;;-1.77;54.51;102906.65;1716057;83;21486;-73
2022/03/21 01:17:50;;;;;;;31.85;17.67;;;;;;;-1.79;54.68;102908.24;1716126;83;21479;-73
2022/03/21 01:20:20;;;;;;;38.40;19.13;;;;;;;-1.80;54.77;102909.94;1716343;83;21017;-73
2022/03/21 01:22:49;;;;;;;35.30;17.77;;;;;;;-1.82;54.74;102913.23;1716188;83;21001;-73
2022/03/21 01:25:18;;;;;;;32.07;18.40;;;;;;;-1.90;54.73;102911.92;1716372;83;21858;-74
2022/03/21 01:27:45;;;;;;;36.80;17.07;;;;;;;-1.99;54.64;102907.58;1716003;83;20937;-72
2022/03/21 01:30:15;;;;;;;32.40;17.60;;;;;;;-2.00;54.75;102909.64;1716248;83;21287;-73
2022/03/21 01:32:46;;;;;;;32.03;16.37;;;;;;;-2.02;54.92;102914.72;1716023;83;20986;-73
2022/03/21 01:35:17;;;;;;;33.37;17.07;;;;;;;-2.02;54.89;102911.74;1716337;83;21045;-75
2022/03/21 01:37:45;;;;;;;35.97;17.50;;;;;;;-2.10;54.95;102910.44;1715956;83;21392;-73
2022/03/21 01:40:14;;;;;;;33.93;17.90;;;;;;;-2.12;55.29;102913.72;1716102;83;21009;-75
2022/03/21 01:42:46;;;;;;;36.63;18.70;;;;;;;-2.17;55.29;102907.44;1716299;83;21462;-74
2022/03/21 01:45:17;;;;;;;30.90;17.95;;;;;;;-2.21;55.47;102911.94;1715834;82;21052;-73
2022/03/21 01:47:46;;;;;;;35.03;18.63;;;;;;;-2.26;55.58;102909.10;1716186;83;21036;-76
2022/03/21 01:50:15;;;;;;;32.40;18.73;;;;;;;-2.30;55.65;102911.00;1716328;83;21097;-75
2022/03/21 01:52:44;;;;;;;32.43;18.17;;;;;;;-2.32;55.98;102906.20;1725579;82;21016;-75
2022/03/21 01:58:00;;;;;;;33.70;18.77;;;;;;;-2.34;56.12;102901.37;1731817;82;20981;-74
2022/03/21 02:00:28;;;;;;;43.47;19.57;;;;;;;-2.43;56.24;102904.31;1713325;83;21029;-74
2022/03/21 02:02:56;;;;;;;35.77;19.20;;;;;;;-2.51;56.29;102906.44;1731789;82;21807;-74
2022/03/21 02:05:23;;;;;;;40.60;20.50;;;;;;;-2.50;56.68;102899.61;1731837;82;21019;-73
2022/03/21 02:07:52;;;;;;;35.80;18.30;;;;;;;-2.52;56.79;102899.95;1732034;82;21287;-73
2022/03/21 02:10:19;;;;;;;32.23;18.10;;;;;;;-2.54;56.83;102896.00;1731981;82;21030;-73
2022/03/21 02:12:47;;;;;;;35.37;18.37;;;;;;;-2.56;56.90;102895.02;1732307;82;21074;-74
2022/03/21 02:15:15;;;;;;;39.03;17.97;;;;;;;-2.62;56.59;102901.09;1731954;82;21260;-74
2022/03/21 02:17:45;;;;;;;31.30;16.67;;;;;;;-2.68;56.73;102898.19;1732163;82;20999;-74
2022/03/21 02:20:18;;;;;;;30.92;16.62;;;;;;;-2.66;56.76;102896.97;1732195;82;21625;-74
2022/03/21 02:23:10;;;;;;;29.60;14.10;;;;;;;-2.68;56.65;102893.05;1732224;82;21026;-74
2022/03/21 02:25:44;;;;;;;28.07;14.97;;;;;;;-2.67;56.44;102887.11;1732124;82;21042;-73
2022/03/21 02:28:16;;;;;;;27.23;14.67;;;;;;;-2.63;56.43;102890.35;1732195;82;21859;-74
2022/03/21 02:30:47;;;;;;;27.73;14.70;;;;;;;-2.66;56.20;102889.27;1731939;82;21042;-74
2022/03/21 02:33:17;;;;;;;25.92;14.53;;;;;;;-2.71;56.06;102892.88;1732447;82;27831;-74
2022/03/21 02:35:48;;;;;;;28.35;13.58;;;;;;;-2.73;56.18;102896.63;1732122;82;27212;-74
2022/03/21 02:38:17;;;;;;;24.87;13.47;;;;;;;-2.78;56.01;102889.06;1732207;82;21030;-74
2022/03/21 02:40:45;;;;;;;25.87;13.37;;;;;;;-2.87;55.96;102888.54;1732035;82;21126;-74
2022/03/21 02:43:12;;;;;;;25.70;13.67;;;;;;;-2.92;56.01;102885.70;1732091;82;21023;-74
2022/03/21 02:45:41;;;;;;;27.13;13.33;;;;;;;-2.95;56.01;102885.52;1732040;82;20991;-74
2022/03/21 02:48:08;;;;;;;23.67;12.73;;;;;;;-2.97;56.20;102892.64;1732236;82;21477;-73
2022/03/21 02:50:49;;;;;;;22.60;13.23;;;;;;;-2.99;56.18;102886.56;1731934;82;21026;-74
2022/03/21 02:53:12;;;;;;;24.57;13.80;;;;;;;-3.00;56.19;102889.50;1730803;82;21293;-74
2022/03/21 02:55:41;;;;;;;27.20;12.93;;;;;;;-3.04;56.12;102885.00;1732293;82;21007;-73
2022/03/21 02:58:08;;;;;;;23.93;12.97;;;;;;;-3.05;56.17;102883.61;1732295;82;21038;-74
2022/03/21 03:00:35;;;;;;;25.53;13.17;;;;;;;-3.09;56.06;102890.25;1732517;82;21487;-74
2022/03/21 03:03:02;;;;;;;29.10;13.37;;;;;;;-3.10;56.22;102891.44;1732519;82;21034;-73
2022/03/21 03:05:30;;;;;;;26.03;12.93;;;;;;;-3.16;56.27;102889.02;1732630;82;21473;-74
2022/03/21 03:07:57;;;;;;;26.67;13.40;;;;;;;-3.20;56.28;102896.44;1732589;82;21515;-73
2022/03/21 03:10:24;;;;;;;27.53;13.50;;;;;;;-3.23;56.54;102896.26;1732695;82;21607;-74
2022/03/21 03:12:52;;;;;;;27.17;13.23;;;;;;;-3.23;56.57;102892.00;1732864;82;20991;-74
2022/03/21 03:15:20;;;;;;;25.20;13.33;;;;;;;-3.28;56.52;102897.25;1732626;82;21030;-74
2022/03/21 03:17:46;;;;;;;23.07;13.40;;;;;;;-3.29;56.64;102901.03;1732919;82;21106;-74
2022/03/21 03:20:15;;;;;;;25.93;13.10;;;;;;;-3.30;56.82;102899.23;1732522;82;21501;-74
2022/03/21 03:22:45;;;;;;;28.83;14.77;;;;;;;-3.29;56.82;102897.18;1732844;82;21049;-74
2022/03/21 03:25:12;;;;;;;25.53;13.73;;;;;;;-3.30;56.88;102897.95;1732570;82;21042;-74
2022/03/21 03:27:39;;;;;;;25.20;13.37;;;;;;;-3.32;57.05;102897.88;1732958;82;21034;-74
2022/03/21 03:30:06;;;;;;;23.90;12.93;;;;;;;-3.33;57.15;102906.34;1732523;82;21121;-74
2022/03/21 03:32:35;;;;;;;26.90;13.40;;;;;;;-3.33;57.18;102901.63;1732867;82;20991;-74
2022/03/21 03:35:02;;;;;;;25.03;13.27;;;;;;;-3.39;57.09;102909.44;1732546;82;21026;-74
2022/03/21 03:37:29;;;;;;;26.10;13.67;;;;;;;-3.40;57.16;102901.66;1732929;82;21053;-74
2022/03/21 03:39:56;;;;;;;25.60;13.27;;;;;;;-3.41;57.12;102898.59;1732656;82;21070;-74
2022/03/21 03:42:23;;;;;;;27.50;13.70;;;;;;;-3.45;57.09;102898.81;1732922;82;21106;-74
2022/03/21 03:44:51;;;;;;;23.47;14.00;;;;;;;-3.49;57.25;102902.00;1732485;82;21078;-74
2022/03/21 03:47:18;;;;;;;28.50;13.80;;;;;;;-3.41;57.65;102902.06;1732922;82;21047;-74
2022/03/21 03:49:45;;;;;;;29.50;14.53;;;;;;;-3.40;57.57;102897.41;1732633;82;21038;-74
2022/03/21 03:52:12;;;;;;;27.50;14.17;;;;;;;-3.36;58.21;102905.77;1732899;82;21277;-74
2022/03/21 03:54:39;;;;;;;30.33;15.27;;;;;;;-3.35;58.04;102902.83;1732559;82;21076;-74
2022/03/21 03:57:06;;;;;;;28.13;14.17;;;;;;;-3.38;58.18;102903.53;1734980;82;21058;-73
2022/03/21 03:59:34;;;;;;;26.60;13.97;;;;;;;-3.36;58.30;102900.64;1734654;82;21028;-74
2022/03/21 04:02:01;;;;;;;25.57;14.43;;;;;;;-3.38;58.21;102904.81;1716070;83;21037;-74
2022/03/21 04:04:28;;;;;;;29.23;13.93;;;;;;;-3.40;58.32;102900.38;1734797;82;21293;-73
2022/03/21 04:06:55;;;;;;;28.57;14.20;;;;;;;-3.42;58.57;102909.25;1703962;84;21763;-74
2022/03/21 04:09:23;;;;;;;29.47;15.33;;;;;;;-3.38;58.78;102908.66;1734592;82;21123;-74
2022/03/21 04:11:51;;;;;;;29.23;15.40;;;;;;;-3.42;58.56;102902.84;1734651;82;20988;-74
2022/03/21 04:14:18;;;;;;;27.83;14.23;;;;;;;-3.49;58.58;102908.41;1703993;84;22006;-74
2022/03/21 04:16:45;;;;;;;27.20;14.67;;;;;;;-3.51;58.72;102912.95;1734686;82;21000;-74
2022/03/21 04:19:13;;;;;;;29.83;16.57;;;;;;;-3.56;58.61;102907.54;1735020;82;21073;-74
2022/03/21 04:21:41;;;;;;;28.83;15.00;;;;;;;-3.59;59.03;102908.23;1703766;84;21498;-74
2022/03/21 04:24:08;;;;;;;32.83;16.80;;;;;;;-3.57;59.03;102901.94;1734855;82;21481;-72
2022/03/21 04:26:35;;;;;;;33.97;16.43;;;;;;;-3.58;58.91;102906.55;1715986;83;21502;-73
2022/03/21 04:29:04;;;;;;;34.17;16.00;;;;;;;-3.61;58.89;102908.53;1735005;82;21079;-74
2022/03/21 04:31:33;;;;;;;31.03;15.50;;;;;;;-3.66;58.83;102902.27;1703817;84;21127;-73
2022/03/21 04:34:00;;;;;;;35.33;16.63;;;;;;;-3.70;58.89;102909.26;1734845;82;21003;-74
2022/03/21 04:36:29;;;;;;;30.27;15.67;;;;;;;-3.75;58.90;102908.09;1734656;82;21012;-74
2022/03/21 04:38:56;;;;;;;30.13;15.03;;;;;;;-3.78;58.80;102909.18;1704153;84;21525;-73
2022/03/21 04:41:24;;;;;;;33.17;15.33;;;;;;;-3.83;58.73;102911.45;1734641;82;20984;-73
2022/03/21 04:43:52;;;;;;;31.47;15.30;;;;;;;-3.86;58.85;102915.51;1716394;83;21111;-74
2022/03/21 04:46:19;;;;;;;31.83;14.70;;;;;;;-3.85;58.92;102913.05;1715986;83;21434;-74
2022/03/21 04:48:46;;;;;;;33.00;14.67;;;;;;;-3.88;58.80;102914.52;1734953;82;20996;-73
2022/03/21 04:51:14;;;;;;;29.63;14.40;;;;;;;-3.86;58.91;102913.83;1704215;84;21092;-74
2022/03/21 04:53:41;;;;;;;27.90;14.47;;;;;;;-3.85;58.95;102913.05;1713639;82;21318;-74
2022/03/21 04:56:08;;;;;;;26.73;14.93;;;;;;;-3.87;58.86;102913.75;1699699;84;21133;-75
2022/03/21 04:58:35;;;;;;;22.83;12.60;;;;;;;-3.89;58.90;102917.48;1686490;83;21069;-72
2022/03/21 05:01:03;;;;;;;30.37;15.20;;;;;;;-3.91;58.88;102918.17;1701003;83;21490;-72
2022/03/21 05:03:31;;;;;;;27.47;14.83;;;;;;;-3.92;58.92;102921.14;1697802;84;21023;-72
2022/03/21 05:05:58;;;;;;;26.73;14.20;;;;;;;-3.93;58.82;102924.50;1702693;83;21620;-74
2022/03/21 05:08:25;;;;;;;27.93;14.57;;;;;;;-3.92;58.68;102924.09;1698366;84;21982;-74
2022/03/21 05:10:52;;;;;;;27.37;14.40;;;;;;;-3.96;58.55;102917.91;1716099;82;20911;-73
2022/03/21 05:13:19;;;;;;;29.93;15.30;;;;;;;-3.96;58.67;102919.19;1724048;83;21043;-73
2022/03/21 05:15:46;;;;;;;28.67;14.67;;;;;;;-3.94;58.66;102915.02;1742079;82;21049;-73
2022/03/21 05:18:14;;;;;;;26.40;14.43;;;;;;;-3.94;58.78;102924.39;1720792;82;21627;-71
2022/03/21 05:20:42;;;;;;;28.10;14.83;;;;;;;-3.97;58.75;102925.48;1712482;83;21167;-72
2022/03/21 05:31:27;;;;;;;25.60;14.47;;;;;;;-3.91;59.22;102924.17;1710973;83;21028;-74
2022/03/21 05:36:40;;;;;;;28.40;16.20;;;;;;;-3.79;59.50;102929.61;1709564;83;20967;-74
2022/03/21 05:39:08;;;;;;;26.53;14.90;;;;;;;-3.75;59.70;102931.55;1712434;83;32552;-74
2022/03/21 05:41:35;;;;;;;27.93;15.20;;;;;;;-3.69;59.96;102937.93;1712407;83;21022;-74
2022/03/21 05:44:02;;;;;;;32.23;16.70;;;;;;;-3.63;60.10;102939.62;1720261;83;21045;-74
2022/03/21 05:46:30;;;;;;;28.37;15.23;;;;;;;-3.55;60.37;102930.20;1720357;83;21006;-74
2022/03/21 05:49:00;;;;;;;30.03;15.70;;;;;;;-3.50;60.51;102933.54;1720202;83;21037;-74
2022/03/21 05:51:34;;;;;;;30.32;15.93;;;;;;;-3.39;60.75;102935.48;1720634;83;28416;-75
2022/03/21 05:54:08;;;;;;;28.10;16.93;;;;;;;-3.31;60.85;102925.29;1745136;81;21036;-74
2022/03/21 05:56:37;;;;;;;28.40;15.50;;;;;;;-3.22;61.07;102933.52;1761954;81;21428;-74
2022/03/21 06:01:52;;;;;;;30.77;16.47;;;;;;;-2.91;61.42;102939.19;1762039;81;21005;-73
2022/03/21 06:04:23;;;;;;;33.10;16.73;;;;;;;-2.73;61.35;102939.39;1761941;81;20985;-74
2022/03/21 06:06:49;;;;;;;33.73;17.90;;;;;;;-2.63;61.19;102944.64;1762155;81;21885;-75
2022/03/21 06:09:16;;;;;;;32.97;17.57;;;;;;;-2.54;61.15;102946.07;1762174;81;21529;-73
2022/03/21 06:11:48;;;;;;;34.47;17.70;;;;;;;-2.44;61.11;102947.47;1762223;81;21132;-74
2022/03/21 06:14:12;;;;;;;32.77;17.33;;;;;;;-2.31;61.31;102949.06;1761563;81;20905;-74
2022/03/21 06:16:39;;;;;;;30.17;16.80;;;;;;;-2.17;61.69;102945.57;1762004;81;21072;-73
2022/03/21 06:19:06;;;;;;;28.30;16.47;;;;;;;-2.02;61.94;102953.27;1761879;81;21514;-74
2022/03/21 06:21:33;;;;;;;32.10;17.07;;;;;;;-1.90;62.02;102954.34;1762015;81;21052;-73
2022/03/21 06:24:00;;;;;;;29.10;16.30;;;;;;;-1.79;62.03;102955.80;1761651;81;22000;-73
2022/03/21 06:26:27;;;;;;;31.80;17.10;;;;;;;-1.68;62.20;102953.83;1761843;81;21083;-74
2022/03/21 06:28:55;;;;;;;35.70;19.17;;;;;;;-1.55;62.11;102955.34;1761819;81;21004;-72
2022/03/21 06:31:22;;;;;;;34.67;19.17;;;;;;;-1.43;61.53;102951.75;1762514;81;20976;-74
2022/03/21 06:33:49;;;;;;;40.20;19.37;;;;;;;-1.24;60.49;102951.03;1762251;81;21063;-74
2022/03/21 06:36:16;;;;;;;40.70;19.30;;;;;;;-1.03;59.85;102952.94;1762476;81;21708;-74
2022/03/21 06:38:43;;;;;;;38.30;19.80;;;;;;;-0.83;59.27;102953.95;1762083;81;21438;-72
2022/03/21 06:41:10;;;;;;;38.40;20.10;;;;;;;-0.62;58.81;102965.74;1762178;81;21036;-74
2022/03/21 06:43:37;;;;;;;38.90;20.73;;;;;;;-0.45;58.64;102959.31;1762389;81;21490;-74
2022/03/21 06:46:05;;;;;;;40.10;19.67;;;;;;;-0.26;58.14;102953.37;1762404;81;21024;-74
2022/03/21 06:48:33;;;;;;;40.10;19.57;;;;;;;-0.08;57.74;102950.81;1761891;81;21130;-75
2022/03/21 06:51:00;;;;;;;45.53;22.40;;;;;;;0.10;57.38;102956.34;1762455;81;20985;-77
2022/03/21 06:53:27;;;;;;;38.27;19.60;;;;;;;0.24;56.92;102952.70;1762203;81;21016;-73
2022/03/21 06:55:54;;;;;;;36.10;20.17;;;;;;;0.39;56.40;102952.55;1762135;81;21020;-74
2022/03/21 06:58:21;;;;;;;38.07;20.33;;;;;;;0.53;56.17;102957.92;1762198;81;21000;-75
2022/03/21 07:00:48;;;;;;;40.00;21.17;;;;;;;0.65;55.76;102957.17;1762193;81;21048;-73
2022/03/21 07:03:16;;;;;;;38.83;20.63;;;;;;;0.79;55.50;102961.66;1758117;81;20972;-73
2022/03/21 07:05:44;;;;;;;37.53;20.90;;;;;;;0.93;55.29;102964.84;1750770;80;20981;-74
2022/03/21 07:08:12;;;;;;;41.70;22.13;;;;;;;1.06;54.69;102967.14;1745331;81;20992;-73
2022/03/21 07:10:44;;;;;;;44.97;22.33;;;;;;;1.19;54.45;102968.95;1731819;82;21144;-75
2022/03/21 07:13:10;;;;;;;43.43;22.37;;;;;;;1.29;54.13;102964.66;1752294;81;21172;-75
2022/03/21 07:15:38;;;;;;;48.77;24.73;;;;;;;1.40;53.87;102964.70;1759308;81;21015;-72
2022/03/21 07:18:05;;;;;;;48.93;24.47;;;;;;;1.52;53.65;102965.60;1765061;80;20992;-74
2022/03/21 07:20:33;;;;;;;42.17;23.17;;;;;;;1.64;53.45;102966.13;1755521;80;21016;-76
2022/03/21 07:23:01;;;;;;;44.40;23.33;;;;;;;1.76;53.39;102966.61;1765088;81;21514;-75
2022/03/21 07:25:28;;;;;;;49.23;26.80;;;;;;;1.90;53.06;102968.87;1759552;81;21121;-77
2022/03/21 07:27:55;;;;;;;55.37;29.83;;;;;;;2.00;52.81;102964.12;1765006;81;20973;-73
2022/03/21 07:30:22;;;;;;;45.07;24.60;;;;;;;2.14;52.64;102967.25;1759778;81;21536;-76
2022/03/21 07:32:49;;;;;;;45.07;25.83;;;;;;;2.26;52.36;102973.30;1761368;81;21001;-75
2022/03/21 07:35:16;;;;;;;51.10;28.43;;;;;;;2.37;52.08;102965.95;1769720;79;21359;-74
2022/03/21 07:37:54;;;;;;;42.20;23.40;;;;;;;2.49;52.09;102962.52;1752927;81;21143;-73
2022/03/21 07:40:19;;;;;;;43.37;23.00;;;;;;;2.66;51.93;102968.31;1722053;82;21104;-76
2022/03/21 07:42:47;;;;;;;43.50;23.53;;;;;;;2.82;51.95;102965.45;1737103;82;21091;-74
2022/03/21 07:48:01;;;;;;;75.47;37.60;;;;;;;3.12;51.58;102961.78;1734237;82;21032;-74
2022/03/21 07:50:29;;;;;;;58.77;32.30;;;;;;;3.28;51.10;102959.30;1722121;82;21203;-74
2022/03/21 07:52:59;;;;;;;45.47;24.77;;;;;;;3.45;50.99;102963.77;1709055;84;21625;-75
2022/03/21 07:55:26;;;;;;;65.55;34.70;;;;;;;3.63;50.81;102963.89;1711581;83;21040;-75
2022/03/21 07:57:53;;;;;;;42.67;25.07;;;;;;;3.76;50.45;102956.55;1711580;83;21017;-75
2022/03/21 08:00:20;;;;;;;40.10;21.40;;;;;;;3.91;50.18;102965.27;1711808;83;21029;-74
2022/03/21 08:02:49;;;;;;;35.60;20.93;;;;;;;4.06;49.94;102967.87;1711697;83;21506;-74
2022/03/21 08:05:16;;;;;;;38.73;22.70;;;;;;;4.16;49.45;102960.84;1711591;83;21528;-75
2022/03/21 08:07:44;;;;;;;34.87;20.50;;;;;;;4.29;49.81;102961.64;1711687;83;21025;-75
2022/03/21 08:10:11;;;;;;;36.97;21.17;;;;;;;4.48;49.64;102963.08;1735820;82;21554;-74
2022/03/21 08:12:42;;;;;;;36.97;21.07;;;;;;;4.66;49.42;102960.14;1733094;82;21076;-74
2022/03/21 08:15:11;;;;;;;;;;;;;;;4.83;48.82;102965.39;1714478;83;21543;-74
2022/03/21 08:18:03;;;;;;;34.73;19.70;;;;;;;5.02;48.56;102970.67;1765038;81;20152;-75
2022/03/21 08:20:35;;;;;;;38.10;22.70;;;;;;;5.21;48.40;102968.55;1741441;82;21051;-75
2022/03/21 08:23:08;;;;;;;40.63;21.23;;;;;;;5.42;48.08;102962.61;1765037;80;20989;-75
2022/03/21 08:25:36;;;;;;;36.87;20.73;;;;;;;5.59;47.54;102966.92;1741740;82;21073;-75
2022/03/21 08:28:06;;;;;;;37.57;21.30;;;;;;;5.79;47.22;102971.30;1741603;82;21082;-72
2022/03/21 08:30:35;;;;;;;36.97;21.67;;;;;;;5.90;46.69;102965.93;1765218;81;21544;-74
2022/03/21 08:33:06;;;;;;;38.17;21.27;;;;;;;6.06;46.42;102963.73;1741565;82;21055;-74
2022/03/21 08:35:36;;;;;;;31.37;19.97;;;;;;;6.24;46.34;102956.34;1765188;81;20985;-74
2022/03/21 08:38:09;;;;;;;36.65;19.57;;;;;;;6.53;46.19;102959.97;1765016;80;21489;-73
2022/03/21 08:40:37;;;;;;;33.03;19.90;;;;;;;6.79;45.91;102963.09;1741574;82;21493;-73
2022/03/21 08:43:06;;;;;;;54.17;29.77;;;;;;;7.02;45.60;102957.91;1764730;80;21011;-73
2022/03/21 08:45:35;;;;;;;32.93;20.73;;;;;;;7.22;45.06;102956.96;1765146;81;21027;-73
2022/03/21 08:48:03;;;;;;;35.47;21.13;;;;;;;7.44;44.72;102946.91;1741429;82;20991;-73
2022/03/21 08:50:30;;;;;;;45.57;25.60;;;;;;;7.61;44.23;102950.66;1749466;79;21265;-73
2022/03/21 08:52:58;;;;;;;34.57;20.27;;;;;;;7.75;43.85;102949.57;1765631;79;21138;-74
2022/03/21 08:55:25;;;;;;;36.97;22.20;;;;;;;7.89;43.41;102941.95;1758354;81;21015;-74
2022/03/21 08:57:53;;;;;;;32.07;19.33;;;;;;;8.01;42.92;102941.71;1755268;81;21008;-72
2022/03/21 09:00:20;;;;;;;30.33;19.53;;;;;;;8.12;42.73;102935.34;1756169;81;20977;-73
2022/03/21 09:02:49;;;;;;;31.90;20.47;;;;;;;8.29;42.55;102934.25;1753048;81;21520;-74
2022/03/21 09:05:16;;;;;;;32.00;20.13;;;;;;;8.48;42.19;102938.88;1746304;80;21209;-74
2022/03/21 09:07:43;;;;;;;28.97;18.50;;;;;;;8.63;41.66;102938.17;1775216;80;21040;-73
2022/03/21 09:10:12;;;;;;;29.23;17.90;;;;;;;8.74;41.22;102930.46;1754943;81;20986;-75
2022/03/21 09:12:39;;;;;;;30.67;19.10;;;;;;;8.88;40.89;102926.25;1755189;81;21005;-74
2022/03/21 09:15:07;;;;;;;22.80;15.33;;;;;;;9.00;40.33;102922.88;1763194;80;21004;-72
2022/03/21 09:17:38;;;;;;;27.60;19.03;;;;;;;9.13;39.79;102921.27;1770322;80;21048;-72
2022/03/21 09:20:07;;;;;;;19.27;13.60;;;;;;;9.32;39.56;102921.87;1761957;80;21005;-72
2022/03/21 09:22:34;;;;;;;21.93;14.30;;;;;;;9.47;38.43;102926.78;1759542;80;21496;-72
2022/03/21 09:25:01;;;;;;;19.60;14.20;;;;;;;9.56;38.13;102918.59;1772952;80;21486;-71
2022/03/21 09:27:28;;;;;;;28.77;17.07;;;;;;;9.76;37.88;102914.79;1772266;80;20992;-72
2022/03/21 09:29:55;;;;;;;20.73;12.20;;;;;;;9.88;37.48;102920.97;1761430;80;22197;-74
2022/03/21 09:32:25;;;;;;;22.27;13.47;;;;;;;10.12;37.30;102918.94;1755671;81;21004;-73
2022/03/21 09:34:52;;;;;;;22.87;15.23;;;;;;;10.35;36.92;102919.06;1756621;81;20973;-73
2022/03/21 09:37:19;;;;;;;17.40;12.63;;;;;;;10.55;36.34;102913.89;1756335;81;21011;-73
2022/03/21 09:39:47;;;;;;;18.67;12.80;;;;;;;10.64;35.84;102923.09;1756836;81;21016;-74
2022/03/21 09:42:15;;;;;;;23.30;12.43;;;;;;;10.72;35.52;102921.36;1756353;81;21542;-73
2022/03/21 09:44:42;;;;;;;23.63;12.47;;;;;;;10.78;34.90;102915.25;1756566;81;21546;-74
2022/03/21 09:49:59;;;;;;;30.60;14.50;;;;;;;10.98;34.87;102916.63;1756635;81;20979;-72
2022/03/21 09:52:28;;;;;;;18.80;12.50;;;;;;;11.10;34.29;102900.89;1756512;81;20973;-73
2022/03/21 09:54:55;;;;;;;21.07;13.83;;;;;;;11.23;34.13;102897.84;1756477;81;21105;-74
2022/03/21 09:57:25;;;;;;;17.03;11.90;;;;;;;11.36;34.07;102910.97;1756277;81;21012;-75
2022/03/21 09:59:52;;;;;;;17.07;12.30;;;;;;;11.59;33.85;102900.44;1756720;81;21510;-74
2022/03/21 10:02:21;;;;;;;16.83;11.83;;;;;;;11.77;33.57;102896.02;1756424;81;21084;-73
2022/03/21 10:04:47;;;;;;;19.67;11.95;;;;;;;11.95;33.22;102896.02;1756802;81;21268;-73
2022/03/21 10:07:16;;;;;;;18.32;12.20;;;;;;;12.11;32.82;102891.59;1756531;81;21069;-73
2022/03/21 10:10:08;;;;;;;16.87;12.30;;;;;;;12.21;32.25;102890.66;1756662;81;21009;-74
2022/03/21 10:12:37;;;;;;;16.60;12.10;;;;;;;12.31;32.22;102882.75;1756655;81;21032;-74
2022/03/21 10:15:07;;;;;;;16.52;11.18;;;;;;;12.40;31.86;102890.14;1756878;81;20973;-75
2022/03/21 10:17:34;;;;;;;;;;;;;;;12.54;31.47;102884.81;1759122;81;22061;-75
2022/03/21 10:20:01;;;;;;;16.52;11.20;;;;;;;12.71;31.01;102897.86;1756839;81;21094;-75
2022/03/21 10:22:43;;;;;;;15.10;10.60;;;;;;;12.90;30.60;102884.15;1756465;81;21532;-75
2022/03/21 10:25:11;;;;;;;16.95;12.23;;;;;;;12.94;30.17;102883.22;1756560;81;20973;-74
2022/03/21 10:27:41;;;;;;;15.43;11.20;;;;;;;12.99;29.95;102886.70;1756591;81;21608;-75
2022/03/21 10:30:10;;;;;;;;;;;;;;;13.14;29.86;102874.75;1759557;81;21051;-76
2022/03/21 10:32:46;;;;;;;15.60;11.43;;;;;;;13.29;29.11;102888.70;1756568;81;21163;-75
2022/03/21 10:35:31;;;;;;;14.58;11.40;;;;;;;13.41;29.38;102883.77;1755736;81;20956;-74
2022/03/21 10:38:04;;;;;;;17.35;11.35;;;;;;;13.58;29.20;102877.45;1756518;81;21525;-75
2022/03/21 10:40:37;;;;;;;18.65;11.78;;;;;;;13.87;28.94;102878.03;1756885;81;21028;-74
2022/03/21 10:43:13;;;;;;;17.50;12.60;;;;;;;14.04;28.69;102872.98;1756102;81;20996;-74
2022/03/21 10:45:51;;;;;;;15.48;11.40;;;;;;;14.29;28.61;102860.34;1756733;81;21099;-74
2022/03/21 10:48:23;;;;;;;16.70;11.75;;;;;;;14.53;28.31;102864.91;1756485;81;21041;-76
2022/03/21 10:50:54;;;;;;;14.63;11.35;;;;;;;14.68;27.99;102854.56;1756214;81;21576;-74
2022/03/21 10:53:26;;;;;;;15.78;11.00;;;;;;;14.83;27.74;102863.59;1747500;81;20997;-74
2022/03/21 10:56:06;;;;;;;16.05;11.75;;;;;;;14.95;27.47;102858.09;1761496;79;21004;-75
2022/03/21 10:58:40;;;;;;;18.50;12.18;;;;;;;15.09;27.31;102852.59;1763733;80;21530;-74
2022/03/21 11:01:20;;;;;;;15.30;10.93;;;;;;;15.29;27.10;102844.77;1763476;80;20992;-74
2022/03/21 11:03:50;;;;;;;15.45;11.12;;;;;;;15.36;26.87;102845.09;1765747;79;21544;-74
2022/03/21 11:06:19;;;;;;;16.15;10.85;;;;;;;15.49;26.69;102837.37;1782323;79;20992;-75
2022/03/21 11:08:50;;;;;;;11.35;10.05;;;;;;;15.76;26.77;102845.22;1765442;81;21544;-75
2022/03/21 11:11:17;;;;;;;15.00;9.68;;;;;;;15.90;26.17;102830.40;1728492;83;21184;-76
2022/03/21 11:13:47;;;;;;;13.38;10.03;;;;;;;15.92;25.70;102837.86;1728332;81;21036;-76
2022/03/21 11:16:19;;;;;;;12.60;10.05;;;;;;;15.95;25.55;102830.31;1728080;82;28070;-76
2022/03/21 11:18:48;;;;;;;16.55;10.60;;;;;;;16.18;25.73;102822.74;1727319;82;20989;-75
2022/03/21 11:21:15;;;;;;;12.70;9.10;;;;;;;16.52;25.74;102822.01;1728637;83;21526;-75
2022/03/21 11:23:46;;;;;;;11.90;9.73;;;;;;;16.62;25.17;102817.35;1728853;83;21095;-74
2022/03/21 11:26:40;;;;;;;12.88;10.03;;;;;;;16.63;24.86;102827.92;1728492;83;20997;-75
2022/03/21 11:29:41;;;;;;;12.73;9.98;;;;;;;16.71;24.83;102819.77;1728013;83;21044;-74
2022/03/21 11:32:37;;;;;;;15.05;9.65;;;;;;;16.85;24.72;102808.87;1728609;83;21041;-76
2022/03/21 11:35:14;;;;;;;13.55;8.48;;;;;;;16.98;24.36;102812.09;1727739;83;21057;-75
2022/03/21 11:37:42;;;;;;;11.53;8.70;;;;;;;17.01;24.00;102815.52;1728493;83;21981;-76
2022/03/21 11:40:32;;;;;;;12.45;9.08;;;;;;;16.95;23.68;102801.11;1728637;83;21034;-75
2022/03/21 11:43:22;;;;;;;11.80;8.73;;;;;;;17.08;23.92;102799.03;1728024;83;21037;-74